Terminal Aerodrome Forecast
Issued by NWS

Home | Current Version | Previous Version | Text Only | Print | Product List | Glossary On
Versions: 1 2 3 4 5 6 7 8 9 10 11 12 13 14 15 16 17 18 19 20 21 22 23 24 25 26 27 28 29 30
000
FTUS45 KCYS 130532
TAFRWL
TAF
KRWL 130532Z 1306/1406 25017G25KT P6SM SCT120 BKN200
     FM131100 26010KT P6SM BKN150
     FM132200 32008KT P6SM BKN050 OVC100
     FM140100 36007KT 2SM -SN BR OVC015
      AMD LTD TO CLD VIS AND WIND=

USA.gov is the U.S. government's official web portal to all federal, state and local government web resources and services.